createdAt,value
2018-07-19T00:00:06.861Z,0
2018-07-19T00:01:06.860Z,0
2018-07-19T00:02:06.945Z,0
2018-07-19T00:03:06.918Z,0
2018-07-19T00:04:06.825Z,0
2018-07-19T00:05:06.926Z,0
2018-07-19T00:06:06.994Z,0
2018-07-19T00:07:06.920Z,0
2018-07-19T00:08:07.026Z,0
2018-07-19T00:09:06.941Z,0
2018-07-19T00:10:06.953Z,0
2018-07-19T00:11:06.926Z,0
2018-07-19T00:12:06.942Z,0
2018-07-19T00:13:06.832Z,0
2018-07-19T00:14:06.941Z,0
2018-07-19T00:15:06.895Z,0
2018-07-19T00:16:06.886Z,0
2018-07-19T00:17:06.960Z,0
2018-07-19T00:18:06.834Z,0
2018-07-19T00:19:07.089Z,0
2018-07-19T00:20:06.928Z,0
2018-07-19T00:21:06.923Z,0
2018-07-19T00:22:06.889Z,0
2018-07-19T00:23:06.873Z,0
2018-07-19T00:24:06.930Z,0
2018-07-19T00:25:06.861Z,0
2018-07-19T00:26:06.856Z,0
2018-07-19T00:27:06.854Z,0
2018-07-19T00:28:06.840Z,0
2018-07-19T00:29:06.933Z,0
2018-07-19T00:30:06.933Z,0
2018-07-19T00:31:06.839Z,0
2018-07-19T00:32:06.981Z,0
2018-07-19T00:33:06.845Z,0
2018-07-19T00:34:06.967Z,0
2018-07-19T00:35:06.920Z,0
2018-07-19T00:36:06.911Z,0
2018-07-19T00:37:06.944Z,0
2018-07-19T00:38:06.880Z,0
2018-07-19T00:39:06.871Z,0
2018-07-19T00:40:06.876Z,0
2018-07-19T00:41:06.949Z,0
2018-07-19T00:42:06.880Z,0
2018-07-19T00:43:06.947Z,0
2018-07-19T00:44:06.964Z,0
2018-07-19T00:45:06.950Z,0
2018-07-19T00:46:06.951Z,0
2018-07-19T00:47:06.908Z,0
2018-07-19T00:48:06.887Z,0
2018-07-19T00:49:06.954Z,0
2018-07-19T00:50:06.823Z,0
2018-07-19T00:51:06.859Z,0
2018-07-19T00:52:06.913Z,0
2018-07-19T00:53:06.895Z,0
2018-07-19T00:54:06.948Z,0
2018-07-19T00:55:06.902Z,0
2018-07-19T00:56:06.871Z,0
2018-07-19T00:57:06.828Z,0
2018-07-19T00:58:06.874Z,0
2018-07-19T00:59:06.835Z,0
2018-07-19T01:00:06.960Z,0
2018-07-19T01:01:06.878Z,0
2018-07-19T01:02:06.961Z,0
2018-07-19T01:03:06.923Z,0
2018-07-19T01:04:07.011Z,0
2018-07-19T01:05:06.990Z,0
2018-07-19T01:06:06.940Z,0
2018-07-19T01:07:06.990Z,0
2018-07-19T01:08:06.939Z,0
2018-07-19T01:09:06.926Z,0
2018-07-19T01:10:06.973Z,0
2018-07-19T01:11:06.884Z,0
2018-07-19T01:12:06.945Z,0
2018-07-19T01:13:06.885Z,0
2018-07-19T01:14:06.865Z,0
2018-07-19T01:15:07.029Z,0
2018-07-19T01:16:06.967Z,0
2018-07-19T01:17:06.992Z,0
2018-07-19T01:18:06.906Z,0
2018-07-19T01:19:06.892Z,0
2018-07-19T01:20:07.001Z,0
2018-07-19T01:21:06.935Z,0
2018-07-19T01:22:06.970Z,0
2018-07-19T01:23:07.002Z,0
2018-07-19T01:24:07.013Z,0
2018-07-19T01:25:06.979Z,0
2018-07-19T01:26:07.024Z,0
2018-07-19T01:27:07.024Z,0
2018-07-19T01:28:07.016Z,0
2018-07-19T01:29:07.000Z,0
2018-07-19T01:30:06.955Z,0
2018-07-19T01:31:06.980Z,0
2018-07-19T01:32:06.958Z,0
2018-07-19T01:33:06.889Z,0
2018-07-19T01:34:07.009Z,0
2018-07-19T01:35:06.951Z,0
2018-07-19T01:36:06.923Z,0
2018-07-19T01:37:06.988Z,0
2018-07-19T01:38:06.906Z,0
2018-07-19T01:39:07.023Z,0
2018-07-19T01:40:06.923Z,0
2018-07-19T01:41:06.918Z,0
2018-07-19T01:42:06.917Z,0
2018-07-19T01:43:06.978Z,0
2018-07-19T01:44:06.927Z,0
2018-07-19T01:45:06.922Z,0
2018-07-19T01:46:06.990Z,0
2018-07-19T01:47:06.921Z,0
2018-07-19T01:48:06.921Z,0
2018-07-19T01:49:06.990Z,0
2018-07-19T01:50:06.994Z,0
2018-07-19T01:51:06.993Z,0
2018-07-19T01:52:06.996Z,0
2018-07-19T01:53:06.995Z,0
2018-07-19T01:54:06.994Z,0
2018-07-19T01:55:06.926Z,0
2018-07-19T01:56:06.999Z,0
2018-07-19T01:57:06.996Z,0
2018-07-19T01:58:06.999Z,0
2018-07-19T01:59:06.933Z,0
2018-07-19T02:00:07.158Z,0
2018-07-19T02:01:06.932Z,0
2018-07-19T02:02:06.934Z,0
2018-07-19T02:03:06.933Z,0
2018-07-19T02:04:07.005Z,0
2018-07-19T02:05:07.010Z,0
2018-07-19T02:06:07.007Z,0
2018-07-19T02:07:07.001Z,0
2018-07-19T02:08:07.002Z,0
2018-07-19T02:09:07.042Z,0
2018-07-19T02:10:07.034Z,0
2018-07-19T02:11:06.975Z,0
2018-07-19T02:12:07.031Z,0
2018-07-19T02:13:07.036Z,0
2018-07-19T02:14:06.977Z,0
2018-07-19T02:15:07.036Z,0
2018-07-19T02:16:07.032Z,0
2018-07-19T02:17:06.928Z,0
2018-07-19T02:18:06.919Z,0
2018-07-19T02:19:06.969Z,0
2018-07-19T02:20:07.013Z,0
2018-07-19T02:21:06.950Z,0
2018-07-19T02:22:06.947Z,0
2018-07-19T02:23:06.962Z,0
2018-07-19T02:24:07.019Z,0
2018-07-19T02:25:06.949Z,0
2018-07-19T02:26:06.951Z,0
2018-07-19T02:27:07.023Z,0
2018-07-19T02:28:07.019Z,0
2018-07-19T02:29:06.956Z,0
2018-07-19T02:30:06.943Z,0
2018-07-19T02:31:07.018Z,0
2018-07-19T02:32:07.068Z,0
2018-07-19T02:33:06.942Z,0
2018-07-19T02:34:06.998Z,0
2018-07-19T02:35:07.056Z,0
2018-07-19T02:36:07.065Z,0
2018-07-19T02:37:06.961Z,0
2018-07-19T02:38:07.025Z,4
2018-07-19T02:39:07.053Z,4
2018-07-19T02:40:07.056Z,4
2018-07-19T02:41:07.066Z,4
2018-07-19T02:42:07.049Z,4
2018-07-19T02:43:07.002Z,4
2018-07-19T02:44:06.949Z,4
2018-07-19T02:45:07.049Z,4
2018-07-19T02:46:07.003Z,8
2018-07-19T02:47:07.062Z,8
2018-07-19T02:48:07.063Z,8
2018-07-19T02:49:06.957Z,8
2018-07-19T02:50:06.922Z,12
2018-07-19T02:51:06.924Z,12
2018-07-19T02:52:07.045Z,16
2018-07-19T02:53:06.964Z,16
2018-07-19T02:54:06.927Z,20
2018-07-19T02:55:06.899Z,20
2018-07-19T02:56:07.029Z,24
2018-07-19T02:57:06.994Z,28
2018-07-19T02:58:06.941Z,32
2018-07-19T02:59:06.933Z,36
2018-07-19T03:00:06.931Z,40
2018-07-19T03:01:07.061Z,48
2018-07-19T03:02:07.025Z,56
2018-07-19T03:03:07.015Z,60
2018-07-19T03:04:07.002Z,68
2018-07-19T03:05:07.044Z,80
2018-07-19T03:06:07.043Z,88
2018-07-19T03:07:07.045Z,100
2018-07-19T03:08:07.005Z,116
2018-07-19T03:09:06.989Z,128
2018-07-19T03:10:06.996Z,148
2018-07-19T03:11:07.028Z,164
2018-07-19T03:12:07.071Z,188
2018-07-19T03:13:07.071Z,208
2018-07-19T03:14:07.026Z,232
2018-07-19T03:15:07.086Z,256
2018-07-19T03:16:06.971Z,288
2018-07-19T03:17:07.050Z,320
2018-07-19T03:18:07.081Z,356
2018-07-19T03:19:06.972Z,396
2018-07-19T03:20:07.151Z,436
2018-07-19T03:21:07.056Z,484
2018-07-19T03:22:07.096Z,532
2018-07-19T03:23:07.030Z,584
2018-07-19T03:24:07.020Z,640
2018-07-19T03:25:07.057Z,700
2018-07-19T03:26:07.091Z,760
2018-07-19T03:27:06.993Z,828
2018-07-19T03:28:07.025Z,900
2018-07-19T03:29:07.115Z,976
2018-07-19T03:30:06.991Z,1052
2018-07-19T03:31:07.121Z,1136
2018-07-19T03:32:06.997Z,1220
2018-07-19T03:33:06.998Z,1304
2018-07-19T03:34:07.064Z,1384
2018-07-19T03:35:07.033Z,1476
2018-07-19T03:36:07.001Z,1568
2018-07-19T03:37:06.999Z,1664
2018-07-19T03:38:07.069Z,1760
2018-07-19T03:39:07.013Z,1872
2018-07-19T03:40:07.109Z,1980
2018-07-19T03:41:07.000Z,2088
2018-07-19T03:42:07.067Z,2188
2018-07-19T03:43:07.004Z,2300
2018-07-19T03:44:07.072Z,2416
2018-07-19T03:45:07.007Z,2528
2018-07-19T03:46:07.005Z,2652
2018-07-19T03:47:07.002Z,2772
2018-07-19T03:48:07.070Z,2892
2018-07-19T03:49:07.007Z,3020
2018-07-19T03:50:07.072Z,3136
2018-07-19T03:51:07.027Z,3256
2018-07-19T03:52:06.976Z,3376
2018-07-19T03:53:07.063Z,3500
2018-07-19T03:54:06.961Z,3620
2018-07-19T03:55:07.065Z,3736
2018-07-19T03:56:07.072Z,3864
2018-07-19T03:57:07.065Z,3992
2018-07-19T03:58:07.078Z,4112
2018-07-19T03:59:07.014Z,4244
2018-07-19T04:00:07.027Z,4376
2018-07-19T04:01:07.048Z,4504
2018-07-19T04:02:07.078Z,4708
2018-07-19T04:03:07.049Z,4840
2018-07-19T04:04:07.106Z,4964
2018-07-19T04:05:07.102Z,5088
2018-07-19T04:06:07.122Z,5216
2018-07-19T04:07:07.088Z,5336
2018-07-19T04:08:07.039Z,5456
2018-07-19T04:09:07.147Z,5584
2018-07-19T04:10:07.063Z,5704
2018-07-19T04:11:07.112Z,5832
2018-07-19T04:12:07.087Z,5960
2018-07-19T04:13:07.029Z,6080
2018-07-19T04:14:07.104Z,6200
2018-07-19T04:15:07.089Z,6324
2018-07-19T04:16:07.057Z,6452
2018-07-19T04:17:07.143Z,6584
2018-07-19T04:18:07.123Z,6696
2018-07-19T04:19:07.115Z,6816
2018-07-19T04:20:07.107Z,6944
2018-07-19T04:21:07.128Z,7056
2018-07-19T04:22:07.124Z,7168
2018-07-19T04:23:06.995Z,7272
2018-07-19T04:24:07.129Z,7316
2018-07-19T04:25:07.136Z,7432
2018-07-19T04:26:07.124Z,7544
2018-07-19T04:27:07.118Z,7660
2018-07-19T04:28:07.055Z,7800
2018-07-19T04:29:07.097Z,7908
2018-07-19T04:30:07.118Z,8012
2018-07-19T04:31:07.083Z,8108
2018-07-19T04:32:07.045Z,8224
2018-07-19T04:33:07.051Z,8316
2018-07-19T04:34:06.988Z,8420
2018-07-19T04:35:07.030Z,8520
2018-07-19T04:36:07.104Z,8656
2018-07-19T04:37:06.974Z,8776
2018-07-19T04:38:07.019Z,8892
2018-07-19T04:39:07.088Z,9008
2018-07-19T04:40:07.089Z,9120
2018-07-19T04:41:07.013Z,9220
2018-07-19T04:42:07.061Z,9328
2018-07-19T04:43:06.975Z,9424
2018-07-19T04:44:07.093Z,9512
2018-07-19T04:45:07.034Z,9608
2018-07-19T04:46:07.017Z,9692
2018-07-19T04:47:06.976Z,9792
2018-07-19T04:48:07.055Z,9880
2018-07-19T04:49:07.110Z,9968
2018-07-19T04:50:07.063Z,10052
2018-07-19T04:51:06.978Z,10136
2018-07-19T04:52:06.983Z,10232
2018-07-19T04:53:07.107Z,10608
2018-07-19T04:54:07.046Z,10708
2018-07-19T04:55:07.045Z,10796
2018-07-19T04:56:07.048Z,10896
2018-07-19T04:57:06.988Z,11000
2018-07-19T04:58:07.071Z,11112
2018-07-19T04:59:07.104Z,11216
2018-07-19T05:00:07.066Z,11308
2018-07-19T05:01:07.054Z,11412
2018-07-19T05:02:07.069Z,11504
2018-07-19T05:03:07.053Z,11588
2018-07-19T05:04:07.124Z,11676
2018-07-19T05:05:07.119Z,11768
2018-07-19T05:06:07.072Z,11864
2018-07-19T05:07:07.054Z,11964
2018-07-19T05:08:07.132Z,12064
2018-07-19T05:09:07.128Z,12140
2018-07-19T05:10:07.126Z,12224
2018-07-19T05:11:07.123Z,12316
2018-07-19T05:12:07.061Z,12404
2018-07-19T05:13:07.063Z,12480
2018-07-19T05:14:07.137Z,12576
2018-07-19T05:15:07.128Z,12640
2018-07-19T05:16:07.062Z,12700
2018-07-19T05:17:07.066Z,12776
2018-07-19T05:18:07.127Z,12836
2018-07-19T05:19:07.061Z,12888
2018-07-19T05:20:07.131Z,12952
2018-07-19T05:21:07.055Z,13008
2018-07-19T05:22:07.136Z,13076
2018-07-19T05:23:07.244Z,13136
2018-07-19T05:24:07.105Z,13192
2018-07-19T05:25:07.116Z,13252
2018-07-19T05:26:07.135Z,13324
2018-07-19T05:27:07.103Z,13372
2018-07-19T05:28:07.156Z,13448
2018-07-19T05:29:07.042Z,13516
2018-07-19T05:30:07.152Z,13568
2018-07-19T05:31:07.080Z,13640
2018-07-19T05:32:07.017Z,13708
2018-07-19T05:33:07.029Z,13784
2018-07-19T05:34:07.065Z,13864
2018-07-19T05:35:07.013Z,13932
2018-07-19T05:36:07.123Z,14012
2018-07-19T05:37:07.079Z,14100
2018-07-19T05:38:07.040Z,14192
2018-07-19T05:39:07.070Z,14280
2018-07-19T05:40:07.126Z,14364
2018-07-19T05:41:07.146Z,14452
2018-07-19T05:42:07.185Z,14556
2018-07-19T05:43:07.051Z,14632
2018-07-19T05:44:07.070Z,14728
2018-07-19T05:45:07.147Z,14812
2018-07-19T05:46:07.175Z,14900
2018-07-19T05:47:07.198Z,15012
2018-07-19T05:48:07.123Z,15084
2018-07-19T05:49:07.169Z,15196
2018-07-19T05:50:07.169Z,21044
2018-07-19T05:51:07.118Z,34976
2018-07-19T05:52:07.091Z,40384
2018-07-19T05:53:07.102Z,40544
2018-07-19T05:54:07.057Z,40800
2018-07-19T05:55:07.091Z,42176
2018-07-19T05:56:07.091Z,43328
2018-07-19T05:57:07.157Z,46528
2018-07-19T05:58:07.212Z,59520
2018-07-19T05:59:07.097Z,74816
2018-07-19T06:00:07.159Z,75264
2018-07-19T06:01:07.068Z,78464
2018-07-19T06:02:07.098Z,95072
2018-07-19T06:03:07.163Z,86368
2018-07-19T06:04:07.164Z,71808
2018-07-19T06:05:07.119Z,99648
2018-07-19T06:06:07.139Z,70240
2018-07-19T06:07:07.128Z,106080
2018-07-19T06:08:07.145Z,57952
2018-07-19T06:09:07.191Z,33696
2018-07-19T06:10:07.184Z,38304
2018-07-19T06:11:07.203Z,36064
2018-07-19T06:12:07.107Z,34272
2018-07-19T06:13:07.102Z,33120
2018-07-19T06:14:07.182Z,24160
2018-07-19T06:15:07.107Z,38496
2018-07-19T06:16:07.182Z,61792
2018-07-19T06:17:07.210Z,61312
2018-07-19T06:18:07.171Z,59424
2018-07-19T06:19:07.104Z,58752
2018-07-19T06:20:07.188Z,56992
2018-07-19T06:21:07.166Z,59424
2018-07-19T06:22:07.177Z,57952
2018-07-19T06:23:07.042Z,59904
2018-07-19T06:24:07.130Z,66656
2018-07-19T06:25:07.171Z,67072
2018-07-19T06:26:07.079Z,65600
2018-07-19T06:27:07.080Z,64128
2018-07-19T06:28:07.086Z,63456
2018-07-19T06:29:07.082Z,63840
2018-07-19T06:30:07.134Z,64448
2018-07-19T06:31:07.177Z,65152
2018-07-19T06:32:07.078Z,66560
2018-07-19T06:33:07.050Z,67136
2018-07-19T06:34:07.119Z,65248
2018-07-19T06:35:07.114Z,62432
2018-07-19T06:36:07.067Z,61024
2018-07-19T06:37:07.134Z,60704
2018-07-19T06:38:07.093Z,62784
2018-07-19T06:39:07.088Z,66368
2018-07-19T06:40:07.089Z,70976
2018-07-19T06:41:07.149Z,75456
2018-07-19T06:42:07.184Z,77632
2018-07-19T06:43:07.094Z,77344
2018-07-19T06:44:07.172Z,75488
2018-07-19T06:45:07.233Z,73088
2018-07-19T06:46:07.117Z,71584
2018-07-19T06:47:07.169Z,71232
2018-07-19T06:48:07.211Z,72160
2018-07-19T06:49:07.154Z,74080
2018-07-19T06:50:07.167Z,76128
2018-07-19T06:51:07.200Z,77088
2018-07-19T06:52:07.116Z,77184
2018-07-19T06:53:07.157Z,78176
2018-07-19T06:54:07.180Z,79168
2018-07-19T06:55:07.221Z,78464
2018-07-19T06:56:07.163Z,75840
2018-07-19T06:57:07.124Z,71424
2018-07-19T06:58:07.279Z,68032
2018-07-19T06:59:07.240Z,66176
2018-07-19T07:00:07.206Z,67008
2018-07-19T07:01:07.203Z,70272
2018-07-19T07:02:07.148Z,73120
2018-07-19T07:03:07.221Z,77088
2018-07-19T07:04:07.129Z,81536
2018-07-19T07:05:07.163Z,85792
2018-07-19T07:06:07.164Z,88320
2018-07-19T07:07:07.103Z,90816
2018-07-19T07:08:07.132Z,91712
2018-07-19T07:09:07.239Z,91584
2018-07-19T07:10:07.236Z,90400
2018-07-19T07:11:07.207Z,87744
2018-07-19T07:12:07.208Z,85760
2018-07-19T07:13:07.142Z,83584
2018-07-19T07:14:07.211Z,81504
2018-07-19T07:15:07.234Z,80672
2018-07-19T07:16:07.147Z,80480
2018-07-19T07:17:07.177Z,81056
2018-07-19T07:18:07.211Z,82016
2018-07-19T07:19:07.216Z,83840
2018-07-19T07:20:07.150Z,84640
2018-07-19T07:21:07.297Z,84384
2018-07-19T07:22:07.146Z,83200
2018-07-19T07:23:07.156Z,83008
2018-07-19T07:24:07.214Z,85568
2018-07-19T07:25:07.150Z,89920
2018-07-19T07:26:07.216Z,95104
2018-07-19T07:27:07.223Z,100800
2018-07-19T07:28:07.155Z,104640
2018-07-19T07:29:07.152Z,104832
2018-07-19T07:30:07.221Z,100096
2018-07-19T07:31:07.210Z,94240
2018-07-19T07:32:07.215Z,87776
2018-07-19T07:33:07.143Z,82752
2018-07-19T07:34:07.142Z,80960
2018-07-19T07:35:07.130Z,82976
2018-07-19T07:36:07.215Z,89120
2018-07-19T07:37:07.128Z,96160
2018-07-19T07:38:07.159Z,102016
2018-07-19T07:39:07.218Z,107456
2018-07-19T07:40:07.184Z,110016
2018-07-19T07:41:07.234Z,109536
2018-07-19T07:42:07.240Z,108064
2018-07-19T07:43:07.260Z,105984
2018-07-19T07:44:07.295Z,105504
2018-07-19T07:45:07.184Z,105856
2018-07-19T07:46:07.235Z,106880
2018-07-19T07:47:07.139Z,107840
2018-07-19T07:48:07.200Z,108896
2018-07-19T07:49:07.267Z,109312
2018-07-19T07:50:07.199Z,109120
2018-07-19T07:51:07.198Z,109152
2018-07-19T07:52:07.205Z,109568
2018-07-19T07:53:07.194Z,110432
2018-07-19T07:54:07.215Z,112544
2018-07-19T07:55:07.196Z,115168
2018-07-19T07:56:07.237Z,114592
2018-07-19T07:57:07.208Z,115168
2018-07-19T07:58:07.265Z,115232
2018-07-19T07:59:07.196Z,114144
2018-07-19T08:00:07.266Z,113568
2018-07-19T08:01:07.199Z,113088
2018-07-19T08:02:07.243Z,114880
2018-07-19T08:03:07.205Z,116704
2018-07-19T08:04:07.242Z,119840
2018-07-19T08:05:07.177Z,122528
2018-07-19T08:06:07.245Z,123040
2018-07-19T08:07:07.245Z,121664
2018-07-19T08:08:07.184Z,118912
2018-07-19T08:09:07.248Z,116128
2018-07-19T08:10:07.140Z,113152
2018-07-19T08:11:07.209Z,111168
2018-07-19T08:12:07.248Z,110976
2018-07-19T08:13:07.255Z,112448
2018-07-19T08:14:07.273Z,115808
2018-07-19T08:15:07.153Z,120128
2018-07-19T08:16:07.270Z,125536
2018-07-19T08:17:07.274Z,128736
2018-07-19T08:18:07.277Z,127680
2018-07-19T08:19:07.232Z,124800
2018-07-19T08:20:07.273Z,121792
2018-07-19T08:21:07.255Z,118624
2018-07-19T08:22:07.180Z,116192
2018-07-19T08:23:07.244Z,115712
2018-07-19T08:24:07.231Z,116896
2018-07-19T08:25:07.166Z,118368
2018-07-19T08:26:07.239Z,118144
2018-07-19T08:27:07.181Z,119168
2018-07-19T08:28:07.283Z,120320
2018-07-19T08:29:07.301Z,122592
2018-07-19T08:30:07.234Z,124768
2018-07-19T08:31:07.167Z,128448
2018-07-19T08:32:07.245Z,130144
2018-07-19T08:33:07.169Z,130304
2018-07-19T08:34:07.231Z,130368
2018-07-19T08:35:07.225Z,128608
2018-07-19T08:36:07.306Z,124576
2018-07-19T08:37:07.202Z,121728
2018-07-19T08:38:07.230Z,117056
2018-07-19T08:39:07.293Z,113760
2018-07-19T08:40:07.288Z,114944
2018-07-19T08:41:07.291Z,118080
2018-07-19T08:42:07.194Z,121792
2018-07-19T08:43:07.298Z,127232
2018-07-19T08:44:07.300Z,129632
2018-07-19T08:45:07.178Z,132672
2018-07-19T08:46:07.240Z,132640
2018-07-19T08:47:07.343Z,134464
2018-07-19T08:48:07.301Z,134592
2018-07-19T08:49:07.242Z,135904
2018-07-19T08:50:07.272Z,135488
2018-07-19T08:51:07.196Z,134048
2018-07-19T08:52:07.235Z,130944
2018-07-19T08:53:07.277Z,129024
2018-07-19T08:54:07.301Z,127392
2018-07-19T08:55:07.295Z,128448
2018-07-19T08:56:07.217Z,128224
2018-07-19T08:57:07.203Z,131136
2018-07-19T08:58:07.234Z,132416
2018-07-19T08:59:07.317Z,133312
2018-07-19T09:00:07.298Z,137824
2018-07-19T09:01:07.308Z,137120
2018-07-19T09:02:07.342Z,139136
2018-07-19T09:03:07.240Z,137952
2018-07-19T09:04:07.204Z,138176
2018-07-19T09:05:07.320Z,138528
2018-07-19T09:06:07.248Z,138592
2018-07-19T09:07:07.307Z,138720
2018-07-19T09:08:07.192Z,138176
2018-07-19T09:09:07.196Z,133824
2018-07-19T09:10:07.325Z,133984
2018-07-19T09:11:07.263Z,133472
2018-07-19T09:12:07.295Z,134976
2018-07-19T09:13:07.194Z,136320
2018-07-19T09:14:07.319Z,138240
2018-07-19T09:15:07.322Z,140640
2018-07-19T09:16:07.326Z,141984
2018-07-19T09:17:07.250Z,138048
2018-07-19T09:18:07.216Z,137472
2018-07-19T09:19:07.273Z,134624
2018-07-19T09:20:07.279Z,134336
2018-07-19T09:21:07.220Z,133792
2018-07-19T09:22:07.320Z,137024
2018-07-19T09:23:07.276Z,137696
2018-07-19T09:24:07.320Z,140288
2018-07-19T09:25:07.320Z,142208
2018-07-19T09:26:07.339Z,146912
2018-07-19T09:27:07.277Z,146752
2018-07-19T09:28:07.300Z,148512
2018-07-19T09:29:07.339Z,148480
2018-07-19T09:30:07.299Z,148512
2018-07-19T09:31:07.264Z,148832
2018-07-19T09:32:07.284Z,147552
2018-07-19T09:33:07.280Z,147808
2018-07-19T09:34:07.255Z,144512
2018-07-19T09:35:07.182Z,143200
2018-07-19T09:36:07.194Z,141952
2018-07-19T09:37:07.297Z,143712
2018-07-19T09:38:07.290Z,146112
2018-07-19T09:39:07.199Z,148896
2018-07-19T09:40:07.265Z,145920
2018-07-19T09:41:07.295Z,144032
2018-07-19T09:42:07.252Z,141248
2018-07-19T09:43:07.329Z,140576
2018-07-19T09:44:07.311Z,140384
2018-07-19T09:45:07.210Z,141216
2018-07-19T09:46:07.279Z,144384
2018-07-19T09:47:07.287Z,144864
2018-07-19T09:48:07.312Z,146912
2018-07-19T09:49:07.329Z,147488
2018-07-19T09:50:07.271Z,148768
2018-07-19T09:51:07.351Z,147168
2018-07-19T09:52:07.249Z,147296
2018-07-19T09:53:07.253Z,146784
2018-07-19T09:54:07.319Z,146688
2018-07-19T09:55:07.317Z,148128
2018-07-19T09:56:07.261Z,150272
2018-07-19T09:57:07.250Z,148160
2018-07-19T09:58:07.321Z,151168
2018-07-19T09:59:07.323Z,150400
2018-07-19T10:00:07.263Z,149984
2018-07-19T10:01:07.254Z,150592
2018-07-19T10:02:07.327Z,152352
2018-07-19T10:03:07.260Z,153088
2018-07-19T10:04:07.323Z,153920
2018-07-19T10:05:07.259Z,153728
2018-07-19T10:06:07.261Z,155104
2018-07-19T10:07:07.328Z,156096
2018-07-19T10:08:07.299Z,155808
2018-07-19T10:10:07.300Z,153504
2018-07-19T10:11:07.329Z,152064
2018-07-19T10:12:07.379Z,151776
2018-07-19T10:13:07.315Z,151424
2018-07-19T10:14:07.277Z,152224
2018-07-19T10:15:07.365Z,155136
2018-07-19T10:16:07.275Z,157728
2018-07-19T10:17:07.372Z,158720
2018-07-19T10:18:07.297Z,158208
2018-07-19T10:19:07.335Z,152416
2018-07-19T10:20:07.236Z,150016
2018-07-19T10:21:07.338Z,148320
2018-07-19T10:22:07.268Z,146816
2018-07-19T10:23:07.274Z,147552
2018-07-19T10:24:07.338Z,150688
2018-07-19T10:25:07.339Z,152416
2018-07-19T10:26:07.273Z,154208
2018-07-19T10:27:07.344Z,153088
2018-07-19T10:28:07.338Z,152352
2018-07-19T10:29:07.273Z,150208
2018-07-19T10:30:07.228Z,147904
2018-07-19T10:31:07.340Z,148704
2018-07-19T10:32:07.456Z,151392
2018-07-19T10:33:07.386Z,154592
2018-07-19T10:34:07.392Z,156768
2018-07-19T10:35:07.359Z,157696
2018-07-19T10:36:07.388Z,158720
2018-07-19T10:37:07.347Z,157632
2018-07-19T10:38:07.374Z,156384
2018-07-19T10:39:07.348Z,152864
2018-07-19T10:40:07.382Z,150944
2018-07-19T10:41:07.395Z,150400
2018-07-19T10:42:07.288Z,150272
2018-07-19T10:43:07.415Z,151872
2018-07-19T10:44:07.353Z,153888
2018-07-19T10:45:07.356Z,153344
2018-07-19T10:46:07.300Z,153344
2018-07-19T10:47:07.294Z,151488
2018-07-19T10:48:07.353Z,148608
2018-07-19T10:49:07.288Z,147808
2018-07-19T10:50:07.376Z,149440
2018-07-19T10:51:07.247Z,153248
2018-07-19T10:52:07.284Z,157216
2018-07-19T10:53:07.386Z,159616
2018-07-19T10:54:07.281Z,160128
2018-07-19T10:55:07.382Z,158752
2018-07-19T10:56:07.266Z,158016
2018-07-19T10:57:07.315Z,157504
2018-07-19T10:58:07.380Z,156928
2018-07-19T10:59:07.363Z,156800
2018-07-19T11:00:07.637Z,157600
2018-07-19T11:01:07.267Z,159008
2018-07-19T11:02:07.318Z,160032
2018-07-19T11:03:07.266Z,158752
2018-07-19T11:04:07.379Z,155872
2018-07-19T11:05:07.390Z,153472
2018-07-19T11:06:07.337Z,152672
2018-07-19T11:07:07.334Z,149952
2018-07-19T11:08:07.268Z,147488
2018-07-19T11:09:07.337Z,148192
2018-07-19T11:10:07.395Z,151328
2018-07-19T11:11:07.378Z,155456
2018-07-19T11:12:07.333Z,157696
2018-07-19T11:13:07.303Z,159552
2018-07-19T11:14:07.241Z,160480
2018-07-19T11:15:07.328Z,161504
2018-07-19T11:16:07.264Z,159360
2018-07-19T11:17:07.322Z,155776
2018-07-19T11:18:07.309Z,153504
2018-07-19T11:19:07.351Z,154176
2018-07-19T11:20:07.267Z,156576
2018-07-19T11:21:07.241Z,160032
2018-07-19T11:22:07.274Z,163712
2018-07-19T11:23:07.346Z,166496
2018-07-19T11:24:07.333Z,166240
2018-07-19T11:25:07.413Z,163520
2018-07-19T11:26:07.339Z,160256
2018-07-19T11:27:07.383Z,156800
2018-07-19T11:28:07.415Z,156128
2018-07-19T11:29:07.411Z,156640
2018-07-19T11:30:07.366Z,158176
2018-07-19T11:31:07.397Z,159488
2018-07-19T11:32:07.418Z,159712
2018-07-19T11:33:07.355Z,158688
2018-07-19T11:34:07.357Z,157728
2018-07-19T11:35:07.288Z,155968
2018-07-19T11:36:07.325Z,153312
2018-07-19T11:37:07.344Z,151168
2018-07-19T11:38:07.310Z,150368
2018-07-19T11:39:07.416Z,154176
2018-07-19T11:40:07.366Z,158112
2018-07-19T11:41:07.300Z,162080
2018-07-19T11:42:07.312Z,164160
2018-07-19T11:43:07.261Z,165472
2018-07-19T11:44:07.300Z,165824
2018-07-19T11:45:07.386Z,163200
2018-07-19T11:46:07.387Z,157728
2018-07-19T11:47:07.386Z,153248
2018-07-19T11:48:07.320Z,152608
2018-07-19T11:49:07.325Z,151168
2018-07-19T11:50:07.356Z,152992
2018-07-19T11:51:07.393Z,156928
2018-07-19T11:52:07.394Z,160160
2018-07-19T11:53:07.396Z,160224
2018-07-19T11:54:07.282Z,156800
2018-07-19T11:55:07.398Z,151296
2018-07-19T11:56:07.392Z,149728
2018-07-19T11:57:07.388Z,149568
2018-07-19T11:58:07.351Z,151328
2018-07-19T11:59:07.392Z,155040
2018-07-19T12:00:07.394Z,158976
2018-07-19T12:01:07.421Z,159840
2018-07-19T12:02:07.423Z,159456
2018-07-19T12:03:07.366Z,157248
2018-07-19T12:04:07.362Z,155104
2018-07-19T12:05:07.382Z,154528
2018-07-19T12:06:07.429Z,154016
2018-07-19T12:07:07.409Z,156672
2018-07-19T12:08:07.432Z,158016
2018-07-19T12:09:07.411Z,160160
2018-07-19T12:10:07.309Z,161600
2018-07-19T12:11:07.411Z,162656
2018-07-19T12:12:07.347Z,163712
2018-07-19T12:13:07.369Z,162432
2018-07-19T12:14:07.351Z,157632
2018-07-19T12:15:07.418Z,153216
2018-07-19T12:16:07.342Z,148096
2018-07-19T12:17:07.416Z,146112
2018-07-19T12:18:07.386Z,145984
2018-07-19T12:19:07.422Z,146752
2018-07-19T12:20:07.349Z,146336
2018-07-19T12:21:07.417Z,146464
2018-07-19T12:22:07.411Z,147136
2018-07-19T12:23:07.355Z,149600
2018-07-19T12:24:07.370Z,152480
2018-07-19T12:25:07.373Z,154496
2018-07-19T12:26:07.355Z,155008
2018-07-19T12:27:07.289Z,156288
2018-07-19T12:28:07.356Z,154784
2018-07-19T12:29:07.365Z,153728
2018-07-19T12:30:07.379Z,154080
2018-07-19T12:31:07.413Z,154784
2018-07-19T12:32:07.366Z,154400
2018-07-19T12:33:07.391Z,152704
2018-07-19T12:34:07.385Z,149408
2018-07-19T12:35:07.461Z,145856
2018-07-19T12:36:07.462Z,144832
2018-07-19T12:37:07.455Z,144960
2018-07-19T12:38:07.453Z,147872
2018-07-19T12:39:07.452Z,148832
2018-07-19T12:40:07.472Z,153472
2018-07-19T12:41:07.468Z,151360
2018-07-19T12:42:07.463Z,147680
2018-07-19T12:43:07.437Z,146112
2018-07-19T12:44:07.394Z,144480
2018-07-19T12:45:07.370Z,144384
2018-07-19T12:46:07.436Z,146976
2018-07-19T12:47:07.451Z,149120
2018-07-19T12:48:07.340Z,148672
2018-07-19T12:49:07.477Z,145440
2018-07-19T12:50:07.476Z,140480
2018-07-19T12:51:07.467Z,133760
2018-07-19T12:52:07.505Z,126368
2018-07-19T12:53:07.369Z,125472
2018-07-19T12:54:07.376Z,127776
2018-07-19T12:55:07.439Z,131232
2018-07-19T12:56:07.398Z,132736
2018-07-19T12:57:07.443Z,131584
2018-07-19T12:58:07.445Z,125952
2018-07-19T12:59:07.426Z,116832
2018-07-19T13:00:07.413Z,106688
2018-07-19T13:01:07.381Z,101536
2018-07-19T13:02:07.428Z,103872
2018-07-19T13:03:07.431Z,110432
2018-07-19T13:04:07.339Z,116416
2018-07-19T13:05:07.433Z,123808
2018-07-19T13:06:07.343Z,131104
2018-07-19T13:07:07.382Z,132544
2018-07-19T13:08:07.427Z,129280
2018-07-19T13:09:07.345Z,122976
2018-07-19T13:10:07.427Z,119328